Saturday, October 20, 2018, 7:20 AM EDT
Back to Local

KWWD, Wildwood, Cape May County Airport

Location: Villas, NJ, United States Lat: 39.017
Local Time: 7:20 AM EDT (11:20 GMT) Lon: -74.917
Time Zone: US/Eastern Elev: 22 ft

Show me the last for .
Show Decoded

2018-10-20 06:55 METAR KWWD 201055Z AUTO 23015G19KT 10SM -RA BKN014 OVC019 15/13 A2982 RMK AO2
                 SLP100 P0002 T01500133 =
2018-10-20 06:12 METAR KWWD 201012Z AUTO 22013KT 7SM -RA BKN018 BKN024 OVC070 15/13 A2982 RMK AO2
                 P0001 =
2018-10-20 05:55 METAR KWWD 200955Z AUTO 23012G23KT 10SM -RA SCT022 BKN060 OVC080 16/13 A2983 RMK
                 AO2 SLP105 P0000 T01560128 =
2018-10-20 03:55 METAR KWWD 200755Z AUTO 21010G17KT 10SM -RA OVC095 16/12 A2987 RMK AO2 RAE20B41
                 SLP117 P0000 T01560122 =
2018-10-20 02:55 METAR KWWD 200655Z AUTO 21010KT 10SM -RA OVC110 15/12 A2990 RMK AO2 RAB17 SLP127
                 P0000 T01500117 =
2018-10-20 01:55 METAR KWWD 200555Z AUTO 20012KT 10SM FEW100 BKN120 16/11 A2992 RMK AO2 SLP134
                 T01560106 10156 20144 56031 =
2018-10-20 00:55 METAR KWWD 200455Z AUTO 21013KT 10SM FEW120 16/10 A2994 RMK AO2 SLP141 T01560100
                 401720033 =
2018-10-19 23:55 METAR KWWD 200355Z AUTO 21010KT 10SM CLR 16/09 A2998 RMK AO2 SLP154 T01560089 =
2018-10-19 22:55 METAR KWWD 200255Z AUTO 21012KT 10SM CLR 15/08 A3001 RMK AO2 SLP165 T01500083
                 58025 =
2018-10-19 21:55 METAR KWWD 200155Z AUTO 21013G19KT 10SM CLR 16/09 A3004 RMK AO2 SLP175 T01560089
                 =
2018-10-19 20:55 METAR KWWD 200055Z AUTO 21015G18KT 10SM CLR 14/07 A3006 RMK AO2 SLP181 T01440072
                 =
2018-10-19 19:55 METAR KWWD 192355Z AUTO 20015G18KT 10SM CLR 14/07 A3008 RMK AO2 SLP190 T01440067
                 10172 20144 56018 =
2018-10-19 18:55 METAR KWWD 192255Z AUTO 19007KT 10SM CLR 15/08 A3010 RMK AO2 SLP196 T01500078 =
2018-10-19 17:55 METAR KWWD 192155Z AUTO 20007KT 10SM CLR 16/07 A3012 RMK AO2 SLP201 T01560072 =
2018-10-19 16:55 METAR KWWD 192055Z AUTO 22006KT 10SM CLR 17/09 A3014 RMK AO2 SLP208 T01720089
                 56035 =
2018-10-19 15:55 METAR KWWD 191955Z AUTO 20009KT 10SM CLR 17/07 A3017 RMK AO2 SLP218 T01720072 =
2018-10-19 14:55 METAR KWWD 191855Z AUTO 21007KT 10SM CLR 17/07 A3020 RMK AO2 SLP228 T01670067 =
2018-10-19 13:55 METAR KWWD 191755Z AUTO 21012KT 10SM 17/06 A3024 RMK AO2 SLP243 T01670056 10167
                 20050 58036 =
2018-10-19 13:20 METAR KWWD 191720Z AUTO 25010G16KT 10SM FEW001 16/05 A3026 RMK AO2 =
2018-10-19 12:55 METAR KWWD 191655Z AUTO 21008G14KT 10SM CLR 16/05 A3028 RMK AO2 SLP256 T01560050
                 =
2018-10-19 11:55 METAR KWWD 191555Z AUTO 27010KT 10SM CLR 15/03 A3032 RMK AO2 SLP271 T01500028 =
2018-10-19 10:55 METAR KWWD 191455Z AUTO 25010KT 10SM CLR 14/02 A3035 RMK AO2 SLP279 T01390017
                 58009 =
2018-10-19 09:55 METAR KWWD 191355Z AUTO 29009KT 10SM CLR 13/02 A3037 RMK AO2 SLP286 T01280022 =
2018-10-19 09:14 METAR KWWD 191314Z AUTO 28008KT 10SM FEW001 12/04 A3037 RMK AO2 =
2018-10-19 08:55 METAR KWWD 191255Z AUTO 27006KT 10SM CLR 12/04 A3038 RMK AO2 SLP289 T01170044 =
2018-10-19 08:23 METAR KWWD 191223Z AUTO 00000KT 10SM FEW001 08/06 A3038 RMK AO2 =
2018-10-19 07:55 METAR KWWD 191155Z AUTO 10SM CLR 05/03 A3037 RMK AO2 SLP288 T00500033 10050
                 20033 53002 =

Support USWX by starting your Amazon purchase here.